Hauptseite
METAR-TAF:

METAR-TAF

Flughäfen :

Chièvres, Belgien

Militärflugplatz Chièvres

Breite: 50-34N, Länge: 003-50E, Höhe: 60 m

Beobachtung

Neuester Wetterbericht von vor 46 Minuten, um 14:25 UTC
Wind 12 kt aus West/Südwest
Temperatur 6°C
Luftfeuchtigkeit 70%
Luftdruck 1010 hPa
Sichtweite 10 km oder mehr

METAR: EBCV 191425Z AUTO 25012KT 9999 SCT027/// 06/01 Q1010 BLU

Zeit: 16:11 (15:11 UTC)

Prognose

Neuester Wetterbericht von vor 3 Stunden und 30 Minuten, um 11:41 UTC
Gültige Prognose vom 19 um 13 UTC bis 19 um 22 UTC
Wind 10 kt aus Südwest
Sichtweite 10 km oder mehr
Leicht bewölkt in der Höhe von 2700 ft
Zeitweise
vom 19 um 17 UTC bis 19 um 22 UTC
Aufgelockert bewölkt in der Höhe von 2000 ft

TAF: EBCV 191141Z 1913/1922 22010KT 9999 FEW027 TEMPO 1917/1922 SCT020 BY EBWM

Wetterbeobachtungen und Prognosen von mehr als 4000 Flughäfen (METAR und TAF Bericht).

Die verfügbaren Stationen werden durch gelbe und rote Markierungen auf der Karte dargestellt.

Führen Sie die Maus auf sie, um den Namen der Station zu sehen.

Darauf klicken, um die Beobachtung von Wetterbeobachtungen und Prognosen zu sehen.

Um die Karte zu ändern : klicken Sie auf den grünen Tasten mit einem schwarzen Kreuz Zum Vergrößern, auf den grünen Button mit einem Gedankenstrich zu verkleinern, oder auf die grünen Pfeile für benachbarte Karten.


METAR-TAF: